Hovedside
METAR-TAF:

METAR-TAF

Lufthavner :

Tucumán, Argentina

breddegrad: 26-51S, lengdegrad: 065-06W, høyde over havet: 440 m

Gjeldene værobservasjon

Denne rapporten ble laget for 1 time og 3 minutter siden, klokken 01:00 UTC
Vind 6 kt fra Nord
Temperatur 18°C
Luftfuktighet 68%
Trykk 1019 hPa
Sikt 10 km eller mer
Spredte skyer i en høyde av 4000 ft

METAR: SANT 190100Z 36006KT 9999 SCT040 18/12 Q1019

Tid: 23:03 (02:03 UTC)

Varsel

Denne rapporten ble laget for 3 timer og 3 minutter siden, klokken 23:00 UTC
Varsel gyldig fra 19. klokken 00 UTC til 19. klokken 24 UTC
Vind 5 kt fra Øst
Sikt 10 km eller mer
Brutte skyer i en høyde av 4000 ft
Overskyet i en høyde av 6000 ft
Blir
fra 19. klokken 10 UTC til 19. klokken 13 UTC
Vind 5 kt fra Sør-sørvest
Sikt 10 km eller mer
Spredte skyer i en høyde av 3000 ft

TAF: SANT 182300Z 1900/1924 09005KT 9999 BKN040 OVC060 TX30/1918Z TN15/1910Z BECMG 1910/1913 21005KT 9999 SCT030

Værobservasjoner og værvarsel for over 4000 flyplasser (METAR- og TAF-rapporter).

Tilgjengelige stasjoner er representert av de røde og gule prikkene på kartet.

Hold musepekeren over prikken for å se navnet på stasjonen.

Klikk så for å se værobservasjoner og -varsler.

For å forandre kartet kan du klikke på den grønne knappen med svart kryss for å zoome inn, på den grønne knappen med strek for å zoome ut, eller på de grønne pilene for å se tilstøtende kart.


METAR-TAF: